createdAt,value
2023-01-30T00:01:59.553Z,5.89
2023-01-30T00:04:26.297Z,5.89
2023-01-30T00:06:53.012Z,5.90
2023-01-30T00:09:19.650Z,5.90
2023-01-30T00:11:46.860Z,5.88
2023-01-30T00:14:13.659Z,5.91
2023-01-30T00:16:40.429Z,5.92
2023-01-30T00:19:07.236Z,5.92
2023-01-30T00:21:34.007Z,5.92
2023-01-30T00:24:01.089Z,5.91
2023-01-30T00:26:27.806Z,5.92
2023-01-30T00:28:54.476Z,5.91
2023-01-30T00:31:21.156Z,5.92
2023-01-30T00:33:47.832Z,5.92
2023-01-30T00:36:14.868Z,5.93
2023-01-30T00:38:41.547Z,5.93
2023-01-30T00:41:08.633Z,5.94
2023-01-30T00:43:54.001Z,5.92
2023-01-30T00:46:50.019Z,5.94
2023-01-30T00:49:16.831Z,5.94
2023-01-30T00:51:43.537Z,5.93
2023-01-30T00:54:10.234Z,5.94
2023-01-30T00:56:36.873Z,5.95
2023-01-30T00:59:03.585Z,5.96
2023-01-30T01:01:30.321Z,5.94
2023-01-30T01:03:57.001Z,5.96
2023-01-30T01:06:23.741Z,5.98
2023-01-30T01:08:50.450Z,5.99
2023-01-30T01:11:24.579Z,6.00
2023-01-30T01:13:57.423Z,6.01
2023-01-30T01:16:24.994Z,6.02
2023-01-30T01:18:51.746Z,6.01
2023-01-30T01:21:20.282Z,6.01
2023-01-30T01:23:56.027Z,6.00
2023-01-30T01:26:23.313Z,6.00
2023-01-30T01:28:54.062Z,5.99
2023-01-30T01:31:20.839Z,5.99
2023-01-30T01:33:47.587Z,5.98
2023-01-30T01:36:29.380Z,5.97
2023-01-30T01:39:01.751Z,5.98
2023-01-30T01:41:28.408Z,5.97
2023-01-30T01:44:12.443Z,5.97
2023-01-30T01:46:39.045Z,5.97
2023-01-30T01:49:27.947Z,5.96
2023-01-30T01:52:09.506Z,5.95
2023-01-30T01:54:48.501Z,5.96
2023-01-30T01:57:28.785Z,5.98
2023-01-30T02:00:05.766Z,5.97
2023-01-30T02:02:33.986Z,5.97
2023-01-30T02:05:03.561Z,5.98
2023-01-30T02:07:37.271Z,5.96
2023-01-30T02:10:05.315Z,5.95
2023-01-30T02:12:32.934Z,5.92
2023-01-30T02:15:00.876Z,5.90
2023-01-30T02:17:27.594Z,5.89
2023-01-30T02:20:16.107Z,5.84
2023-01-30T02:23:03.713Z,5.79
2023-01-30T02:25:52.675Z,5.71
2023-01-30T02:28:22.395Z,5.66
2023-01-30T02:31:16.173Z,5.63
2023-01-30T02:34:11.001Z,5.61
2023-01-30T02:36:51.799Z,5.58
2023-01-30T02:39:49.159Z,5.60
2023-01-30T02:42:43.473Z,5.60
2023-01-30T02:45:25.008Z,5.59
2023-01-30T02:48:11.865Z,5.58
2023-01-30T02:51:01.987Z,5.60
2023-01-30T02:53:33.873Z,5.59
2023-01-30T02:56:00.972Z,5.60
2023-01-30T02:58:35.837Z,5.60
2023-01-30T03:01:08.401Z,5.60
2023-01-30T03:03:49.824Z,5.61
2023-01-30T03:06:47.188Z,5.61
2023-01-30T03:09:25.690Z,5.59
2023-01-30T03:12:43.300Z,5.57
2023-01-30T03:15:20.456Z,5.53
2023-01-30T03:17:48.114Z,5.47
2023-01-30T03:20:17.073Z,5.46
2023-01-30T03:22:43.730Z,5.45
2023-01-30T03:25:14.113Z,5.44
2023-01-30T03:27:40.967Z,5.42
2023-01-30T03:30:08.413Z,5.41
2023-01-30T03:32:35.065Z,5.38
2023-01-30T03:35:01.726Z,5.35
2023-01-30T03:37:28.773Z,5.33
2023-01-30T03:39:55.444Z,5.29
2023-01-30T03:42:22.351Z,5.26
2023-01-30T03:44:49.056Z,5.26
2023-01-30T03:47:15.700Z,5.25
2023-01-30T03:49:42.363Z,5.23
2023-01-30T03:52:09.009Z,5.22
2023-01-30T03:54:35.665Z,5.19
2023-01-30T03:57:02.351Z,5.18
2023-01-30T03:59:29.049Z,5.16
2023-01-30T04:01:55.748Z,5.15
2023-01-30T04:04:23.111Z,5.13
2023-01-30T04:06:49.788Z,5.09
2023-01-30T04:09:16.475Z,5.05
2023-01-30T04:11:43.156Z,5.03
2023-01-30T04:14:09.823Z,5.02
2023-01-30T04:16:36.730Z,4.99
2023-01-30T04:19:03.560Z,4.96
2023-01-30T04:21:30.211Z,4.92
2023-01-30T04:23:56.838Z,4.91
2023-01-30T04:26:23.525Z,4.88
2023-01-30T04:28:50.255Z,4.85
2023-01-30T04:31:16.989Z,4.81
2023-01-30T04:33:43.829Z,4.76
2023-01-30T04:36:11.180Z,4.75
2023-01-30T04:38:38.674Z,4.72
2023-01-30T04:41:05.826Z,4.69
2023-01-30T04:43:33.010Z,4.66
2023-01-30T04:45:59.765Z,4.61
2023-01-30T04:48:26.693Z,4.58
2023-01-30T04:50:55.414Z,4.57
2023-01-30T04:53:22.472Z,4.56
2023-01-30T04:55:49.857Z,4.54
2023-01-30T04:58:17.429Z,4.49
2023-01-30T05:00:44.097Z,4.49
2023-01-30T05:03:11.033Z,4.46
2023-01-30T05:05:37.946Z,4.42
2023-01-30T05:08:05.013Z,4.38
2023-01-30T05:10:31.671Z,4.35
2023-01-30T05:13:02.345Z,4.32
2023-01-30T05:15:29.062Z,4.31
2023-01-30T05:17:55.713Z,4.28
2023-01-30T05:20:22.404Z,4.25
2023-01-30T05:22:49.052Z,4.23
2023-01-30T05:25:15.924Z,4.19
2023-01-30T05:27:42.892Z,4.16
2023-01-30T05:30:10.332Z,4.13
2023-01-30T05:32:36.981Z,4.09
2023-01-30T05:35:03.806Z,4.07
2023-01-30T05:37:31.023Z,4.03
2023-01-30T05:39:57.674Z,4.02
2023-01-30T05:42:24.404Z,4.01
2023-01-30T05:44:51.167Z,3.99
2023-01-30T05:47:17.815Z,3.96
2023-01-30T05:49:44.483Z,3.93
2023-01-30T05:52:11.141Z,3.90
2023-01-30T05:54:37.897Z,3.89
2023-01-30T05:57:04.546Z,3.87
2023-01-30T05:59:31.247Z,3.82
2023-01-30T06:01:57.923Z,3.82
2023-01-30T06:04:24.699Z,3.82
2023-01-30T06:06:51.427Z,3.80
2023-01-30T06:09:18.217Z,3.74
2023-01-30T06:11:44.903Z,3.70
2023-01-30T06:14:11.567Z,3.67
2023-01-30T06:16:38.329Z,3.64
2023-01-30T06:19:05.089Z,3.62
2023-01-30T06:21:31.778Z,3.60
2023-01-30T06:23:58.656Z,3.60
2023-01-30T06:26:25.587Z,3.57
2023-01-30T06:28:52.309Z,3.55
2023-01-30T06:31:19.269Z,3.54
2023-01-30T06:33:45.979Z,3.54
2023-01-30T06:36:13.041Z,3.54
2023-01-30T06:38:39.818Z,3.53
2023-01-30T06:41:06.853Z,3.54
2023-01-30T06:43:33.521Z,3.54
2023-01-30T06:46:00.470Z,3.57
2023-01-30T06:48:27.509Z,3.59
2023-01-30T06:50:54.251Z,3.61
2023-01-30T06:53:22.323Z,3.54
2023-01-30T06:55:48.999Z,3.40
2023-01-30T06:58:15.889Z,3.26
2023-01-30T07:00:43.564Z,3.14
2023-01-30T07:03:15.328Z,3.05
2023-01-30T07:05:43.773Z,2.99
2023-01-30T07:08:11.293Z,3.02
2023-01-30T07:10:38.711Z,3.05
2023-01-30T07:13:05.759Z,3.08
2023-01-30T07:15:32.717Z,3.14
2023-01-30T07:17:59.699Z,3.18
2023-01-30T07:20:26.963Z,3.23
2023-01-30T07:22:55.132Z,3.28
2023-01-30T07:25:24.280Z,3.31
2023-01-30T07:28:00.844Z,3.34
2023-01-30T07:30:29.782Z,3.37
2023-01-30T07:32:59.807Z,3.37
2023-01-30T07:35:29.216Z,3.38
2023-01-30T07:37:55.946Z,3.38
2023-01-30T07:40:23.563Z,3.39
2023-01-30T07:43:15.550Z,3.37
2023-01-30T07:45:44.513Z,3.38
2023-01-30T07:48:13.390Z,3.38
2023-01-30T07:50:40.422Z,3.36
2023-01-30T07:53:09.637Z,3.37
2023-01-30T07:55:36.426Z,3.40
2023-01-30T07:58:03.758Z,3.40
2023-01-30T08:00:30.918Z,3.43
2023-01-30T08:02:57.948Z,3.45
2023-01-30T08:05:25.004Z,3.49
2023-01-30T08:07:51.718Z,3.53
2023-01-30T08:10:18.919Z,3.56
2023-01-30T08:12:45.793Z,3.60
2023-01-30T08:15:12.538Z,3.63
2023-01-30T08:17:39.307Z,3.66
2023-01-30T08:20:06.699Z,3.70
2023-01-30T08:22:33.352Z,3.71
2023-01-30T08:25:00.557Z,3.73
2023-01-30T08:27:27.327Z,3.73
2023-01-30T08:29:54.028Z,3.73
2023-01-30T08:32:20.716Z,3.75
2023-01-30T08:34:47.418Z,3.75
2023-01-30T08:37:14.179Z,3.74
2023-01-30T08:39:40.876Z,3.72
2023-01-30T08:42:07.612Z,3.74
2023-01-30T08:44:34.275Z,3.74
2023-01-30T08:47:00.962Z,3.77
2023-01-30T08:49:27.608Z,3.74
2023-01-30T08:51:54.492Z,3.79
2023-01-30T08:54:21.220Z,3.80
2023-01-30T08:56:47.972Z,3.80
2023-01-30T08:59:14.819Z,3.82
2023-01-30T09:01:41.531Z,3.82
2023-01-30T09:04:08.273Z,3.83
2023-01-30T09:06:35.001Z,3.84
2023-01-30T09:09:01.943Z,3.86
2023-01-30T09:11:28.638Z,3.88
2023-01-30T09:13:55.336Z,3.89
2023-01-30T09:16:22.069Z,3.90
2023-01-30T09:18:48.988Z,3.89
2023-01-30T09:21:15.747Z,3.90
2023-01-30T09:23:42.449Z,3.90
2023-01-30T09:26:09.145Z,3.88
2023-01-30T09:28:36.175Z,3.87
2023-01-30T09:31:03.545Z,3.85
2023-01-30T09:33:30.468Z,3.83
2023-01-30T09:35:57.225Z,3.80
2023-01-30T09:38:23.958Z,3.78
2023-01-30T09:40:59.813Z,3.79
2023-01-30T09:43:26.423Z,3.80
2023-01-30T09:46:20.885Z,3.82
2023-01-30T09:49:07.441Z,3.83
2023-01-30T09:51:37.009Z,3.83
2023-01-30T09:54:22.331Z,3.83
2023-01-30T09:57:20.968Z,3.84
2023-01-30T10:00:15.552Z,3.85
2023-01-30T10:03:08.487Z,3.90
2023-01-30T10:05:54.724Z,3.94
2023-01-30T10:08:48.460Z,3.97
2023-01-30T10:11:44.069Z,4.01
2023-01-30T10:14:44.079Z,4.07
2023-01-30T10:17:32.445Z,4.10
2023-01-30T10:20:26.700Z,4.13
2023-01-30T10:23:18.656Z,4.16
2023-01-30T10:25:58.897Z,4.20
2023-01-30T10:28:38.615Z,4.22
2023-01-30T10:31:15.296Z,4.23
2023-01-30T10:34:00.456Z,4.25
2023-01-30T10:37:00.765Z,4.27
2023-01-30T10:39:55.878Z,4.30
2023-01-30T10:42:40.571Z,4.28
2023-01-30T10:45:20.552Z,4.28
2023-01-30T10:47:59.205Z,4.27
2023-01-30T10:50:50.064Z,4.26
2023-01-30T10:53:50.380Z,4.26
2023-01-30T10:56:26.047Z,4.26
2023-01-30T10:59:07.263Z,4.25
2023-01-30T11:01:44.115Z,4.24
2023-01-30T11:04:34.088Z,4.25
2023-01-30T11:07:02.355Z,4.26
2023-01-30T11:09:41.894Z,4.28
2023-01-30T11:12:08.711Z,4.32
2023-01-30T11:15:04.056Z,4.34
2023-01-30T11:17:42.938Z,4.36
2023-01-30T11:20:19.782Z,4.39
2023-01-30T11:23:05.795Z,4.44
2023-01-30T11:25:46.873Z,4.47
2023-01-30T11:28:17.435Z,4.49
2023-01-30T11:30:49.277Z,4.53
2023-01-30T11:33:18.125Z,4.55
2023-01-30T11:35:56.299Z,4.57
2023-01-30T11:38:29.118Z,4.59
2023-01-30T11:41:22.795Z,4.59
2023-01-30T11:43:49.470Z,4.58
2023-01-30T11:46:20.993Z,4.56
2023-01-30T11:49:32.070Z,4.55
2023-01-30T11:51:44.729Z,4.55
2023-01-30T11:54:18.780Z,4.57
2023-01-30T11:56:58.212Z,4.60
2023-01-30T11:59:26.740Z,4.60
2023-01-30T12:02:01.785Z,4.53
2023-01-30T12:04:28.863Z,4.44
2023-01-30T12:07:08.077Z,4.33
2023-01-30T12:09:38.660Z,4.26
2023-01-30T12:12:37.693Z,4.21
2023-01-30T12:15:24.857Z,4.18
2023-01-30T12:18:29.012Z,4.18
2023-01-30T12:21:05.127Z,4.19
2023-01-30T12:23:40.889Z,4.22
2023-01-30T12:26:20.465Z,4.25
2023-01-30T12:28:52.746Z,4.28
2023-01-30T12:31:24.859Z,4.32
2023-01-30T12:33:51.588Z,4.34
2023-01-30T12:36:26.912Z,4.37
2023-01-30T12:39:05.997Z,4.38
2023-01-30T12:41:38.693Z,4.42
2023-01-30T12:44:29.483Z,4.45
2023-01-30T12:47:17.768Z,4.45
2023-01-30T12:49:47.517Z,4.47
2023-01-30T12:52:41.776Z,4.49
2023-01-30T12:55:46.016Z,4.53
2023-01-30T12:58:20.390Z,4.56
2023-01-30T13:01:06.063Z,4.58
2023-01-30T13:03:52.090Z,4.61
2023-01-30T13:06:37.380Z,4.64
2023-01-30T13:10:04.361Z,4.69
2023-01-30T13:12:43.457Z,4.74
2023-01-30T13:15:23.348Z,4.75
2023-01-30T13:18:02.307Z,4.80
2023-01-30T13:20:38.090Z,4.81
2023-01-30T13:23:10.413Z,4.79
2023-01-30T13:25:46.301Z,4.78
2023-01-30T13:28:18.105Z,4.77
2023-01-30T13:30:48.304Z,4.77
2023-01-30T13:33:40.279Z,4.75
2023-01-30T13:36:24.788Z,4.74
2023-01-30T13:39:06.395Z,4.72
2023-01-30T13:41:37.516Z,4.70
2023-01-30T13:44:34.929Z,4.68
2023-01-30T13:47:40.268Z,4.66
2023-01-30T13:50:46.006Z,4.64
2023-01-30T13:53:31.179Z,4.61
2023-01-30T13:56:39.662Z,4.58
2023-01-30T13:59:26.991Z,4.57
2023-01-30T14:01:59.500Z,4.58
2023-01-30T14:04:41.366Z,4.57
2023-01-30T14:07:25.358Z,4.57
2023-01-30T14:10:13.926Z,4.53
2023-01-30T14:12:44.903Z,4.48
2023-01-30T14:15:19.034Z,4.46
2023-01-30T14:18:02.459Z,4.44
2023-01-30T14:20:32.508Z,4.41
2023-01-30T14:23:06.574Z,4.39
2023-01-30T14:25:42.951Z,4.38
2023-01-30T14:28:09.557Z,4.39
2023-01-30T14:30:45.375Z,4.38
2023-01-30T14:33:21.202Z,4.38
2023-01-30T14:36:08.705Z,4.38
2023-01-30T14:38:37.748Z,4.39
2023-01-30T14:41:04.352Z,4.39
2023-01-30T14:43:43.333Z,4.40
2023-01-30T14:46:29.992Z,4.41
2023-01-30T14:49:04.433Z,4.41
2023-01-30T14:51:40.475Z,4.43
2023-01-30T14:54:23.459Z,4.42
2023-01-30T14:57:04.148Z,4.46
2023-01-30T14:59:33.407Z,4.48
2023-01-30T15:02:08.375Z,4.50
2023-01-30T15:05:03.672Z,4.53
2023-01-30T15:07:40.883Z,4.54
2023-01-30T15:10:24.046Z,4.56
2023-01-30T15:13:15.223Z,4.56
2023-01-30T15:16:28.420Z,4.56
2023-01-30T15:19:23.628Z,4.56
2023-01-30T15:22:24.470Z,4.55
2023-01-30T15:25:10.879Z,4.56
2023-01-30T15:28:12.275Z,4.59
2023-01-30T15:31:03.075Z,4.60
2023-01-30T15:33:31.747Z,4.65
2023-01-30T15:35:59.520Z,4.71
2023-01-30T15:38:31.796Z,4.75
2023-01-30T15:41:02.942Z,4.81
2023-01-30T15:43:41.673Z,4.85
2023-01-30T15:46:24.552Z,4.86
2023-01-30T15:49:09.602Z,4.88
2023-01-30T15:51:36.358Z,4.89
2023-01-30T15:54:10.998Z,4.91
2023-01-30T15:56:40.044Z,4.90
2023-01-30T15:59:08.430Z,4.90
2023-01-30T16:01:35.202Z,4.93
2023-01-30T16:04:07.966Z,4.92
2023-01-30T16:06:37.151Z,4.92
2023-01-30T16:09:21.778Z,4.94
2023-01-30T16:11:48.533Z,4.94
2023-01-30T16:14:20.601Z,4.95
2023-01-30T16:16:50.120Z,4.95
2023-01-30T16:19:41.547Z,4.95
2023-01-30T16:22:19.572Z,4.94
2023-01-30T16:24:50.873Z,4.96
2023-01-30T16:27:29.739Z,4.97
2023-01-30T16:29:59.390Z,4.97
2023-01-30T16:32:31.868Z,4.98
2023-01-30T16:35:27.917Z,5.01
2023-01-30T16:37:57.076Z,5.04
2023-01-30T16:40:30.949Z,5.03
2023-01-30T16:43:16.893Z,5.05
2023-01-30T16:45:52.903Z,5.04
2023-01-30T16:48:19.715Z,5.06
2023-01-30T16:50:48.357Z,5.05
2023-01-30T16:53:24.384Z,5.06
2023-01-30T16:55:58.380Z,5.07
2023-01-30T16:58:32.350Z,5.10
2023-01-30T17:01:05.093Z,5.10
2023-01-30T17:03:43.521Z,5.06
2023-01-30T17:06:23.214Z,5.03
2023-01-30T17:08:55.396Z,4.99
2023-01-30T17:11:39.604Z,4.94
2023-01-30T17:14:15.070Z,4.92
2023-01-30T17:16:43.154Z,4.88
2023-01-30T17:19:09.989Z,4.87
2023-01-30T17:21:45.295Z,4.83
2023-01-30T17:24:16.529Z,4.83
2023-01-30T17:26:43.823Z,4.83
2023-01-30T17:29:23.324Z,4.84
2023-01-30T17:31:56.978Z,4.83
2023-01-30T17:34:24.546Z,4.83
2023-01-30T17:36:53.555Z,4.81
2023-01-30T17:39:22.517Z,4.81
2023-01-30T17:41:49.829Z,4.79
2023-01-30T17:44:16.559Z,4.77
2023-01-30T17:46:49.918Z,4.75
2023-01-30T17:49:21.860Z,4.73
2023-01-30T17:51:49.547Z,4.67
2023-01-30T17:54:20.088Z,4.64
2023-01-30T17:56:56.421Z,4.58
2023-01-30T17:59:23.089Z,4.57
2023-01-30T18:01:51.558Z,4.52
2023-01-30T18:04:19.314Z,4.51
2023-01-30T18:06:50.577Z,4.48
2023-01-30T18:09:20.690Z,4.45
2023-01-30T18:11:48.883Z,4.42
2023-01-30T18:14:16.696Z,4.41
2023-01-30T18:16:44.240Z,4.40
2023-01-30T18:19:16.132Z,4.38
2023-01-30T18:21:45.209Z,4.35
2023-01-30T18:24:13.199Z,4.38
2023-01-30T18:26:40.566Z,4.39
2023-01-30T18:29:09.798Z,4.39
2023-01-30T18:31:38.256Z,4.40
2023-01-30T18:34:07.029Z,4.40
2023-01-30T18:36:35.259Z,4.40
2023-01-30T18:39:01.959Z,4.39
2023-01-30T18:41:29.436Z,4.37
2023-01-30T18:44:01.712Z,4.33
2023-01-30T18:46:29.557Z,4.32
2023-01-30T18:48:57.285Z,4.28
2023-01-30T18:51:29.943Z,4.23
2023-01-30T18:53:57.499Z,4.19
2023-01-30T18:56:25.605Z,4.11
2023-01-30T18:58:53.753Z,4.08
2023-01-30T19:01:23.262Z,4.03
2023-01-30T19:03:50.000Z,3.98
2023-01-30T19:06:18.921Z,3.94
2023-01-30T19:08:45.932Z,3.91
2023-01-30T19:11:33.480Z,3.90
2023-01-30T19:14:00.681Z,3.89
2023-01-30T19:16:29.337Z,3.89
2023-01-30T19:18:56.857Z,3.87
2023-01-30T19:21:24.681Z,3.85
2023-01-30T19:23:51.786Z,3.79
2023-01-30T19:26:20.525Z,3.75
2023-01-30T19:28:47.816Z,3.72
2023-01-30T19:31:17.457Z,3.68
2023-01-30T19:33:45.803Z,3.63
2023-01-30T19:36:13.801Z,3.60
2023-01-30T19:38:41.276Z,3.57
2023-01-30T19:41:13.911Z,3.54
2023-01-30T19:43:41.414Z,3.49
2023-01-30T19:46:10.937Z,3.47
2023-01-30T19:48:42.585Z,3.45
2023-01-30T19:51:21.062Z,3.44
2023-01-30T19:53:55.265Z,3.41
2023-01-30T19:56:24.964Z,3.40
2023-01-30T19:58:53.253Z,3.42
2023-01-30T20:01:22.117Z,3.43
2023-01-30T20:03:49.568Z,3.44
2023-01-30T20:06:26.189Z,3.42
2023-01-30T20:09:00.048Z,3.40
2023-01-30T20:11:27.253Z,3.40
2023-01-30T20:13:54.570Z,3.38
2023-01-30T20:16:25.351Z,3.37
2023-01-30T20:19:01.189Z,3.36
2023-01-30T20:21:29.406Z,3.36
2023-01-30T20:23:57.173Z,3.33
2023-01-30T20:26:26.881Z,3.31
2023-01-30T20:28:57.545Z,3.30
2023-01-30T20:31:26.928Z,3.28
2023-01-30T20:33:57.591Z,3.28
2023-01-30T20:36:27.205Z,3.27
2023-01-30T20:38:55.693Z,3.29
2023-01-30T20:41:24.419Z,3.28
2023-01-30T20:43:53.720Z,3.29
2023-01-30T20:46:23.321Z,3.30
2023-01-30T20:48:52.839Z,3.30
2023-01-30T20:51:32.243Z,3.32
2023-01-30T20:54:01.419Z,3.32
2023-01-30T20:56:33.275Z,3.32
2023-01-30T20:59:02.325Z,3.32
2023-01-30T21:01:29.134Z,3.32
2023-01-30T21:03:56.154Z,3.32
2023-01-30T21:06:41.886Z,3.33
2023-01-30T21:09:17.648Z,3.35
2023-01-30T21:11:44.921Z,3.37
2023-01-30T21:14:12.201Z,3.39
2023-01-30T21:16:39.667Z,3.39
2023-01-30T21:19:08.409Z,3.40
2023-01-30T21:21:41.103Z,3.40
2023-01-30T21:24:11.822Z,3.42
2023-01-30T21:26:41.035Z,3.42
2023-01-30T21:29:08.522Z,3.39
2023-01-30T21:31:37.179Z,3.39
2023-01-30T21:34:04.230Z,3.37
2023-01-30T21:36:31.131Z,3.33
2023-01-30T21:39:16.343Z,3.30
2023-01-30T21:41:51.170Z,3.29
2023-01-30T21:44:19.904Z,3.28
2023-01-30T21:46:48.616Z,3.26
2023-01-30T21:49:16.723Z,3.23
2023-01-30T21:51:45.625Z,3.24
2023-01-30T21:54:12.681Z,3.23
2023-01-30T21:56:40.155Z,3.22
2023-01-30T21:59:07.776Z,3.22
2023-01-30T22:01:36.624Z,3.21
2023-01-30T22:04:05.790Z,3.19
2023-01-30T22:06:32.943Z,3.18
2023-01-30T22:09:01.011Z,3.16
2023-01-30T22:11:30.843Z,3.14
2023-01-30T22:13:58.124Z,3.11
2023-01-30T22:16:27.982Z,3.11
2023-01-30T22:18:56.145Z,3.10
2023-01-30T22:21:26.464Z,3.09
2023-01-30T22:23:54.890Z,3.07
2023-01-30T22:26:23.979Z,3.08
2023-01-30T22:28:56.216Z,3.06
2023-01-30T22:31:24.072Z,3.06
2023-01-30T22:33:54.846Z,3.05
2023-01-30T22:36:26.840Z,3.04
2023-01-30T22:38:54.271Z,3.02
2023-01-30T22:41:26.701Z,3.00
2023-01-30T22:43:58.832Z,2.96
2023-01-30T22:46:31.621Z,2.94
2023-01-30T22:49:00.190Z,2.89
2023-01-30T22:51:39.774Z,2.84
2023-01-30T22:54:09.731Z,2.79
2023-01-30T22:56:41.696Z,2.73
2023-01-30T22:59:09.180Z,2.70
2023-01-30T23:01:41.603Z,2.67
2023-01-30T23:04:16.870Z,2.65
2023-01-30T23:06:44.410Z,2.64
2023-01-30T23:09:19.166Z,2.62
2023-01-30T23:12:24.071Z,2.56
2023-01-30T23:14:50.783Z,2.54
2023-01-30T23:17:36.833Z,2.50
2023-01-30T23:20:03.821Z,2.47
2023-01-30T23:22:30.460Z,2.44
2023-01-30T23:24:57.122Z,2.40
2023-01-30T23:27:24.636Z,2.40
2023-01-30T23:29:51.343Z,2.35
2023-01-30T23:32:21.016Z,2.32
2023-01-30T23:34:48.488Z,2.28
2023-01-30T23:37:15.878Z,2.27
2023-01-30T23:39:42.520Z,2.26
2023-01-30T23:42:09.391Z,2.25
2023-01-30T23:44:36.421Z,2.21
2023-01-30T23:47:03.170Z,2.18
2023-01-30T23:49:29.806Z,2.17
2023-01-30T23:51:56.441Z,2.15
2023-01-30T23:54:23.076Z,2.13
2023-01-30T23:56:49.815Z,2.11
2023-01-30T23:59:16.451Z,2.09
